sensor_id;sensor_type;location;lat;lon;timestamp;P1;durP1;ratioP1;P2;durP2;ratioP2
7939;SDS011;4015;48.888;9.226;2023-12-22T00:01:40;0.50;;;0.50;;
7939;SDS011;4015;48.888;9.226;2023-12-22T00:04:05;0.70;;;0.65;;
7939;SDS011;4015;48.888;9.226;2023-12-22T00:06:31;0.50;;;0.50;;
7939;SDS011;4015;48.888;9.226;2023-12-22T00:08:57;0.60;;;0.50;;
7939;SDS011;4015;48.888;9.226;2023-12-22T00:11:22;0.40;;;0.40;;
7939;SDS011;4015;48.888;9.226;2023-12-22T00:13:48;1.40;;;0.52;;
7939;SDS011;4015;48.888;9.226;2023-12-22T00:16:13;0.40;;;0.40;;
7939;SDS011;4015;48.888;9.226;2023-12-22T00:18:38;0.82;;;0.50;;
7939;SDS011;4015;48.888;9.226;2023-12-22T00:21:03;0.40;;;0.40;;
7939;SDS011;4015;48.888;9.226;2023-12-22T00:23:29;0.50;;;0.50;;
7939;SDS011;4015;48.888;9.226;2023-12-22T00:25:54;0.50;;;0.50;;
7939;SDS011;4015;48.888;9.226;2023-12-22T00:28:19;0.40;;;0.40;;
7939;SDS011;4015;48.888;9.226;2023-12-22T00:30:45;0.70;;;0.50;;
7939;SDS011;4015;48.888;9.226;2023-12-22T00:33:10;0.40;;;0.40;;
7939;SDS011;4015;48.888;9.226;2023-12-22T00:35:35;0.52;;;0.50;;
7939;SDS011;4015;48.888;9.226;2023-12-22T00:38:01;0.40;;;0.40;;
7939;SDS011;4015;48.888;9.226;2023-12-22T00:40:26;0.50;;;0.50;;
7939;SDS011;4015;48.888;9.226;2023-12-22T00:42:51;0.63;;;0.50;;
7939;SDS011;4015;48.888;9.226;2023-12-22T00:45:17;0.60;;;0.50;;
7939;SDS011;4015;48.888;9.226;2023-12-22T00:47:42;0.73;;;0.55;;
7939;SDS011;4015;48.888;9.226;2023-12-22T00:50:07;0.40;;;0.40;;
7939;SDS011;4015;48.888;9.226;2023-12-22T00:52:33;0.60;;;0.55;;
7939;SDS011;4015;48.888;9.226;2023-12-22T00:54:58;0.60;;;0.60;;
7939;SDS011;4015;48.888;9.226;2023-12-22T00:57:24;0.88;;;0.70;;
7939;SDS011;4015;48.888;9.226;2023-12-22T00:59:50;0.60;;;0.50;;
7939;SDS011;4015;48.888;9.226;2023-12-22T01:02:15;0.60;;;0.50;;
7939;SDS011;4015;48.888;9.226;2023-12-22T01:04:41;0.80;;;0.50;;
7939;SDS011;4015;48.888;9.226;2023-12-22T01:07:10;0.52;;;0.50;;
7939;SDS011;4015;48.888;9.226;2023-12-22T01:09:36;0.85;;;0.60;;
7939;SDS011;4015;48.888;9.226;2023-12-22T01:12:05;0.60;;;0.60;;
7939;SDS011;4015;48.888;9.226;2023-12-22T01:14:31;0.57;;;0.52;;
7939;SDS011;4015;48.888;9.226;2023-12-22T01:16:57;0.50;;;0.50;;
7939;SDS011;4015;48.888;9.226;2023-12-22T01:19:24;0.40;;;0.40;;
7939;SDS011;4015;48.888;9.226;2023-12-22T01:21:49;0.60;;;0.60;;
7939;SDS011;4015;48.888;9.226;2023-12-22T01:24:15;0.50;;;0.50;;
7939;SDS011;4015;48.888;9.226;2023-12-22T01:26:40;0.70;;;0.50;;
7939;SDS011;4015;48.888;9.226;2023-12-22T01:29:05;0.60;;;0.60;;
7939;SDS011;4015;48.888;9.226;2023-12-22T01:31:31;0.60;;;0.60;;
7939;SDS011;4015;48.888;9.226;2023-12-22T01:33:56;0.82;;;0.57;;
7939;SDS011;4015;48.888;9.226;2023-12-22T01:36:21;0.80;;;0.50;;
7939;SDS011;4015;48.888;9.226;2023-12-22T01:38:46;0.50;;;0.50;;
7939;SDS011;4015;48.888;9.226;2023-12-22T01:41:12;0.50;;;0.50;;
7939;SDS011;4015;48.888;9.226;2023-12-22T01:43:38;0.60;;;0.50;;
7939;SDS011;4015;48.888;9.226;2023-12-22T01:46:04;0.57;;;0.57;;
7939;SDS011;4015;48.888;9.226;2023-12-22T01:48:33;0.60;;;0.60;;
7939;SDS011;4015;48.888;9.226;2023-12-22T01:50:59;0.98;;;0.60;;
7939;SDS011;4015;48.888;9.226;2023-12-22T01:53:26;0.52;;;0.52;;
7939;SDS011;4015;48.888;9.226;2023-12-22T01:55:51;0.55;;;0.55;;
7939;SDS011;4015;48.888;9.226;2023-12-22T01:58:19;0.50;;;0.50;;
7939;SDS011;4015;48.888;9.226;2023-12-22T02:00:45;0.50;;;0.50;;
7939;SDS011;4015;48.888;9.226;2023-12-22T02:03:11;0.70;;;0.50;;
7939;SDS011;4015;48.888;9.226;2023-12-22T02:05:37;0.75;;;0.60;;
7939;SDS011;4015;48.888;9.226;2023-12-22T02:08:03;0.52;;;0.52;;
7939;SDS011;4015;48.888;9.226;2023-12-22T02:10:28;0.60;;;0.60;;
7939;SDS011;4015;48.888;9.226;2023-12-22T02:12:54;0.90;;;0.75;;
7939;SDS011;4015;48.888;9.226;2023-12-22T02:15:19;0.60;;;0.50;;
7939;SDS011;4015;48.888;9.226;2023-12-22T02:17:48;0.73;;;0.70;;
7939;SDS011;4015;48.888;9.226;2023-12-22T02:20:19;0.50;;;0.50;;
7939;SDS011;4015;48.888;9.226;2023-12-22T02:22:50;0.70;;;0.70;;
7939;SDS011;4015;48.888;9.226;2023-12-22T02:25:16;0.50;;;0.50;;
7939;SDS011;4015;48.888;9.226;2023-12-22T02:27:45;0.40;;;0.40;;
7939;SDS011;4015;48.888;9.226;2023-12-22T02:33:04;0.80;;;0.43;;
7939;SDS011;4015;48.888;9.226;2023-12-22T02:35:34;0.60;;;0.60;;
7939;SDS011;4015;48.888;9.226;2023-12-22T02:38:01;0.63;;;0.63;;
7939;SDS011;4015;48.888;9.226;2023-12-22T02:40:28;0.52;;;0.50;;
7939;SDS011;4015;48.888;9.226;2023-12-22T02:42:55;0.50;;;0.50;;
7939;SDS011;4015;48.888;9.226;2023-12-22T02:45:20;1.02;;;0.50;;
7939;SDS011;4015;48.888;9.226;2023-12-22T02:47:46;1.50;;;0.85;;
7939;SDS011;4015;48.888;9.226;2023-12-22T02:50:12;0.95;;;0.65;;
7939;SDS011;4015;48.888;9.226;2023-12-22T02:52:39;1.02;;;0.60;;
7939;SDS011;4015;48.888;9.226;2023-12-22T02:55:05;0.50;;;0.50;;
7939;SDS011;4015;48.888;9.226;2023-12-22T02:57:30;0.80;;;0.70;;
7939;SDS011;4015;48.888;9.226;2023-12-22T02:59:56;0.50;;;0.50;;
7939;SDS011;4015;48.888;9.226;2023-12-22T03:02:22;0.80;;;0.60;;
7939;SDS011;4015;48.888;9.226;2023-12-22T03:04:47;0.60;;;0.60;;
7939;SDS011;4015;48.888;9.226;2023-12-22T03:07:13;0.68;;;0.60;;
7939;SDS011;4015;48.888;9.226;2023-12-22T03:09:39;0.50;;;0.50;;
7939;SDS011;4015;48.888;9.226;2023-12-22T03:12:05;0.50;;;0.50;;
7939;SDS011;4015;48.888;9.226;2023-12-22T03:14:31;0.73;;;0.50;;
7939;SDS011;4015;48.888;9.226;2023-12-22T03:16:58;0.52;;;0.52;;
7939;SDS011;4015;48.888;9.226;2023-12-22T03:19:24;0.60;;;0.60;;
7939;SDS011;4015;48.888;9.226;2023-12-22T03:21:49;0.68;;;0.52;;
7939;SDS011;4015;48.888;9.226;2023-12-22T03:24:15;0.65;;;0.65;;
7939;SDS011;4015;48.888;9.226;2023-12-22T03:26:41;0.50;;;0.50;;
7939;SDS011;4015;48.888;9.226;2023-12-22T03:29:06;0.60;;;0.57;;
7939;SDS011;4015;48.888;9.226;2023-12-22T03:31:32;0.52;;;0.52;;
7939;SDS011;4015;48.888;9.226;2023-12-22T03:33:57;0.60;;;0.60;;
7939;SDS011;4015;48.888;9.226;2023-12-22T03:36:22;0.50;;;0.50;;
7939;SDS011;4015;48.888;9.226;2023-12-22T03:38:48;1.15;;;0.60;;
7939;SDS011;4015;48.888;9.226;2023-12-22T03:41:13;0.57;;;0.50;;
7939;SDS011;4015;48.888;9.226;2023-12-22T03:43:38;0.60;;;0.60;;
7939;SDS011;4015;48.888;9.226;2023-12-22T03:46:03;0.50;;;0.50;;
7939;SDS011;4015;48.888;9.226;2023-12-22T03:48:29;0.55;;;0.55;;
7939;SDS011;4015;48.888;9.226;2023-12-22T03:50:54;0.85;;;0.52;;
7939;SDS011;4015;48.888;9.226;2023-12-22T03:53:19;0.73;;;0.52;;
7939;SDS011;4015;48.888;9.226;2023-12-22T03:55:45;0.50;;;0.50;;
7939;SDS011;4015;48.888;9.226;2023-12-22T03:58:10;0.50;;;0.50;;
7939;SDS011;4015;48.888;9.226;2023-12-22T04:00:35;0.55;;;0.50;;
7939;SDS011;4015;48.888;9.226;2023-12-22T04:03:01;0.77;;;0.75;;
7939;SDS011;4015;48.888;9.226;2023-12-22T04:05:27;0.80;;;0.52;;
7939;SDS011;4015;48.888;9.226;2023-12-22T04:07:52;0.60;;;0.60;;
7939;SDS011;4015;48.888;9.226;2023-12-22T04:10:17;0.63;;;0.63;;
7939;SDS011;4015;48.888;9.226;2023-12-22T04:12:43;1.08;;;0.60;;
7939;SDS011;4015;48.888;9.226;2023-12-22T04:15:09;0.90;;;0.50;;
7939;SDS011;4015;48.888;9.226;2023-12-22T04:17:34;0.40;;;0.40;;
7939;SDS011;4015;48.888;9.226;2023-12-22T04:19:59;1.05;;;0.60;;
7939;SDS011;4015;48.888;9.226;2023-12-22T04:22:24;0.73;;;0.73;;
7939;SDS011;4015;48.888;9.226;2023-12-22T04:24:50;3.00;;;0.75;;
7939;SDS011;4015;48.888;9.226;2023-12-22T04:27:15;0.93;;;0.50;;
7939;SDS011;4015;48.888;9.226;2023-12-22T04:29:40;0.40;;;0.40;;
7939;SDS011;4015;48.888;9.226;2023-12-22T04:32:06;2.58;;;0.70;;
7939;SDS011;4015;48.888;9.226;2023-12-22T04:34:31;1.00;;;0.50;;
7939;SDS011;4015;48.888;9.226;2023-12-22T04:36:56;0.70;;;0.50;;
7939;SDS011;4015;48.888;9.226;2023-12-22T04:39:21;0.95;;;0.63;;
7939;SDS011;4015;48.888;9.226;2023-12-22T04:41:47;1.05;;;0.50;;
7939;SDS011;4015;48.888;9.226;2023-12-22T04:44:12;0.60;;;0.50;;
7939;SDS011;4015;48.888;9.226;2023-12-22T04:46:37;0.70;;;0.60;;
7939;SDS011;4015;48.888;9.226;2023-12-22T04:49:02;1.27;;;0.70;;
7939;SDS011;4015;48.888;9.226;2023-12-22T04:51:28;0.77;;;0.73;;
7939;SDS011;4015;48.888;9.226;2023-12-22T04:53:54;0.98;;;0.63;;
7939;SDS011;4015;48.888;9.226;2023-12-22T04:56:19;0.77;;;0.60;;
7939;SDS011;4015;48.888;9.226;2023-12-22T04:58:44;1.35;;;0.98;;
7939;SDS011;4015;48.888;9.226;2023-12-22T05:01:09;0.50;;;0.50;;
7939;SDS011;4015;48.888;9.226;2023-12-22T05:03:35;0.57;;;0.55;;
7939;SDS011;4015;48.888;9.226;2023-12-22T05:06:00;0.60;;;0.55;;
7939;SDS011;4015;48.888;9.226;2023-12-22T05:08:25;0.57;;;0.57;;
7939;SDS011;4015;48.888;9.226;2023-12-22T05:10:51;1.35;;;0.50;;
7939;SDS011;4015;48.888;9.226;2023-12-22T05:13:16;0.68;;;0.55;;
7939;SDS011;4015;48.888;9.226;2023-12-22T05:15:41;0.82;;;0.55;;
7939;SDS011;4015;48.888;9.226;2023-12-22T05:18:06;2.08;;;0.60;;
7939;SDS011;4015;48.888;9.226;2023-12-22T05:20:32;0.68;;;0.47;;
7939;SDS011;4015;48.888;9.226;2023-12-22T05:22:57;0.52;;;0.52;;
7939;SDS011;4015;48.888;9.226;2023-12-22T05:25:23;0.60;;;0.60;;
7939;SDS011;4015;48.888;9.226;2023-12-22T05:27:49;0.90;;;0.60;;
7939;SDS011;4015;48.888;9.226;2023-12-22T05:30:14;0.60;;;0.60;;
7939;SDS011;4015;48.888;9.226;2023-12-22T05:32:39;0.60;;;0.60;;
7939;SDS011;4015;48.888;9.226;2023-12-22T05:35:05;0.77;;;0.70;;
7939;SDS011;4015;48.888;9.226;2023-12-22T05:37:30;0.50;;;0.50;;
7939;SDS011;4015;48.888;9.226;2023-12-22T05:39:55;1.05;;;0.70;;
7939;SDS011;4015;48.888;9.226;2023-12-22T05:42:21;0.50;;;0.50;;
7939;SDS011;4015;48.888;9.226;2023-12-22T05:44:46;0.70;;;0.52;;
7939;SDS011;4015;48.888;9.226;2023-12-22T05:47:14;0.65;;;0.50;;
7939;SDS011;4015;48.888;9.226;2023-12-22T05:49:40;0.55;;;0.50;;
7939;SDS011;4015;48.888;9.226;2023-12-22T05:52:06;0.57;;;0.57;;
7939;SDS011;4015;48.888;9.226;2023-12-22T05:54:31;0.65;;;0.50;;
7939;SDS011;4015;48.888;9.226;2023-12-22T05:56:56;0.40;;;0.40;;
7939;SDS011;4015;48.888;9.226;2023-12-22T05:59:22;0.57;;;0.57;;
7939;SDS011;4015;48.888;9.226;2023-12-22T06:01:47;0.60;;;0.50;;
7939;SDS011;4015;48.888;9.226;2023-12-22T06:04:12;0.50;;;0.50;;
7939;SDS011;4015;48.888;9.226;2023-12-22T06:06:38;0.57;;;0.50;;
7939;SDS011;4015;48.888;9.226;2023-12-22T06:09:04;1.98;;;0.60;;
7939;SDS011;4015;48.888;9.226;2023-12-22T06:11:29;0.80;;;0.68;;
7939;SDS011;4015;48.888;9.226;2023-12-22T06:13:55;1.08;;;0.55;;
7939;SDS011;4015;48.888;9.226;2023-12-22T06:16:21;0.55;;;0.52;;
7939;SDS011;4015;48.888;9.226;2023-12-22T06:18:46;0.73;;;0.60;;
7939;SDS011;4015;48.888;9.226;2023-12-22T06:21:12;0.75;;;0.63;;
7939;SDS011;4015;48.888;9.226;2023-12-22T06:23:37;0.60;;;0.60;;
7939;SDS011;4015;48.888;9.226;2023-12-22T06:26:07;0.50;;;0.50;;
7939;SDS011;4015;48.888;9.226;2023-12-22T06:28:33;0.55;;;0.55;;
7939;SDS011;4015;48.888;9.226;2023-12-22T06:31:01;0.60;;;0.60;;
7939;SDS011;4015;48.888;9.226;2023-12-22T06:33:26;0.93;;;0.65;;
7939;SDS011;4015;48.888;9.226;2023-12-22T06:35:51;0.77;;;0.50;;
7939;SDS011;4015;48.888;9.226;2023-12-22T06:38:18;0.65;;;0.55;;
7939;SDS011;4015;48.888;9.226;2023-12-22T06:40:44;1.83;;;0.75;;
7939;SDS011;4015;48.888;9.226;2023-12-22T06:43:11;0.63;;;0.60;;
7939;SDS011;4015;48.888;9.226;2023-12-22T06:45:36;0.60;;;0.60;;
7939;SDS011;4015;48.888;9.226;2023-12-22T06:48:02;0.80;;;0.60;;
7939;SDS011;4015;48.888;9.226;2023-12-22T06:50:27;0.57;;;0.57;;
7939;SDS011;4015;48.888;9.226;2023-12-22T06:52:52;0.73;;;0.73;;
7939;SDS011;4015;48.888;9.226;2023-12-22T06:55:18;0.73;;;0.60;;
7939;SDS011;4015;48.888;9.226;2023-12-22T06:57:43;0.60;;;0.50;;
7939;SDS011;4015;48.888;9.226;2023-12-22T07:00:09;1.23;;;0.60;;
7939;SDS011;4015;48.888;9.226;2023-12-22T07:02:34;1.10;;;0.70;;
7939;SDS011;4015;48.888;9.226;2023-12-22T07:07:34;0.50;;;0.50;;
7939;SDS011;4015;48.888;9.226;2023-12-22T07:10:00;0.82;;;0.60;;
7939;SDS011;4015;48.888;9.226;2023-12-22T07:12:25;0.85;;;0.70;;
7939;SDS011;4015;48.888;9.226;2023-12-22T07:14:51;0.80;;;0.80;;
7939;SDS011;4015;48.888;9.226;2023-12-22T07:17:16;0.68;;;0.65;;
7939;SDS011;4015;48.888;9.226;2023-12-22T07:19:41;0.77;;;0.50;;
7939;SDS011;4015;48.888;9.226;2023-12-22T07:22:07;0.60;;;0.50;;
7939;SDS011;4015;48.888;9.226;2023-12-22T07:24:32;0.98;;;0.75;;
7939;SDS011;4015;48.888;9.226;2023-12-22T07:26:58;0.82;;;0.70;;
7939;SDS011;4015;48.888;9.226;2023-12-22T07:29:23;0.70;;;0.70;;
7939;SDS011;4015;48.888;9.226;2023-12-22T07:31:48;0.95;;;0.70;;
7939;SDS011;4015;48.888;9.226;2023-12-22T07:34:14;0.68;;;0.60;;
7939;SDS011;4015;48.888;9.226;2023-12-22T07:36:40;1.25;;;0.60;;
7939;SDS011;4015;48.888;9.226;2023-12-22T07:39:05;1.42;;;0.73;;
7939;SDS011;4015;48.888;9.226;2023-12-22T07:41:31;0.50;;;0.50;;
7939;SDS011;4015;48.888;9.226;2023-12-22T07:43:57;0.77;;;0.50;;
7939;SDS011;4015;48.888;9.226;2023-12-22T07:46:22;0.68;;;0.60;;
7939;SDS011;4015;48.888;9.226;2023-12-22T07:48:48;0.85;;;0.60;;
7939;SDS011;4015;48.888;9.226;2023-12-22T07:51:13;0.52;;;0.52;;
7939;SDS011;4015;48.888;9.226;2023-12-22T07:53:39;0.85;;;0.50;;
7939;SDS011;4015;48.888;9.226;2023-12-22T07:56:05;1.10;;;0.63;;
7939;SDS011;4015;48.888;9.226;2023-12-22T07:58:32;0.57;;;0.57;;
7939;SDS011;4015;48.888;9.226;2023-12-22T08:01:00;0.70;;;0.60;;
7939;SDS011;4015;48.888;9.226;2023-12-22T08:03:25;0.98;;;0.70;;
7939;SDS011;4015;48.888;9.226;2023-12-22T08:05:50;0.95;;;0.70;;
7939;SDS011;4015;48.888;9.226;2023-12-22T08:08:16;1.25;;;0.63;;
7939;SDS011;4015;48.888;9.226;2023-12-22T08:10:41;0.85;;;0.75;;
7939;SDS011;4015;48.888;9.226;2023-12-22T08:13:06;1.17;;;0.77;;
7939;SDS011;4015;48.888;9.226;2023-12-22T08:15:31;0.90;;;0.70;;
7939;SDS011;4015;48.888;9.226;2023-12-22T08:17:57;1.70;;;0.70;;
7939;SDS011;4015;48.888;9.226;2023-12-22T08:20:22;0.75;;;0.65;;
7939;SDS011;4015;48.888;9.226;2023-12-22T08:22:48;0.77;;;0.60;;
7939;SDS011;4015;48.888;9.226;2023-12-22T08:25:15;0.70;;;0.70;;
7939;SDS011;4015;48.888;9.226;2023-12-22T08:27:40;1.45;;;0.80;;
7939;SDS011;4015;48.888;9.226;2023-12-22T08:30:07;0.80;;;0.70;;
7939;SDS011;4015;48.888;9.226;2023-12-22T08:32:33;1.33;;;0.82;;
7939;SDS011;4015;48.888;9.226;2023-12-22T08:34:59;0.85;;;0.65;;
7939;SDS011;4015;48.888;9.226;2023-12-22T08:37:24;1.15;;;0.80;;
7939;SDS011;4015;48.888;9.226;2023-12-22T08:39:49;1.33;;;0.85;;
7939;SDS011;4015;48.888;9.226;2023-12-22T08:42:15;0.65;;;0.60;;
7939;SDS011;4015;48.888;9.226;2023-12-22T08:44:41;1.30;;;0.70;;
7939;SDS011;4015;48.888;9.226;2023-12-22T08:47:07;1.58;;;0.88;;
7939;SDS011;4015;48.888;9.226;2023-12-22T08:49:32;0.82;;;0.70;;
7939;SDS011;4015;48.888;9.226;2023-12-22T08:51:57;1.55;;;0.70;;
7939;SDS011;4015;48.888;9.226;2023-12-22T08:54:23;1.00;;;0.60;;
7939;SDS011;4015;48.888;9.226;2023-12-22T08:56:48;0.70;;;0.63;;
7939;SDS011;4015;48.888;9.226;2023-12-22T08:59:13;1.05;;;0.60;;
7939;SDS011;4015;48.888;9.226;2023-12-22T09:01:39;0.60;;;0.60;;
7939;SDS011;4015;48.888;9.226;2023-12-22T09:04:06;1.33;;;0.80;;
7939;SDS011;4015;48.888;9.226;2023-12-22T09:06:31;1.17;;;0.90;;
7939;SDS011;4015;48.888;9.226;2023-12-22T09:08:56;1.27;;;0.90;;
7939;SDS011;4015;48.888;9.226;2023-12-22T09:11:22;1.70;;;0.80;;
7939;SDS011;4015;48.888;9.226;2023-12-22T09:13:48;0.88;;;0.60;;
7939;SDS011;4015;48.888;9.226;2023-12-22T09:16:13;1.92;;;0.93;;
7939;SDS011;4015;48.888;9.226;2023-12-22T09:18:45;1.00;;;0.90;;
7939;SDS011;4015;48.888;9.226;2023-12-22T09:21:10;1.35;;;0.90;;
7939;SDS011;4015;48.888;9.226;2023-12-22T09:23:35;1.92;;;1.08;;
7939;SDS011;4015;48.888;9.226;2023-12-22T09:26:00;1.58;;;1.00;;
7939;SDS011;4015;48.888;9.226;2023-12-22T09:28:26;2.50;;;0.98;;
7939;SDS011;4015;48.888;9.226;2023-12-22T09:30:51;0.88;;;0.70;;
7939;SDS011;4015;48.888;9.226;2023-12-22T09:33:16;4.85;;;0.90;;
7939;SDS011;4015;48.888;9.226;2023-12-22T09:35:42;1.50;;;0.80;;
7939;SDS011;4015;48.888;9.226;2023-12-22T09:38:08;1.02;;;0.73;;
7939;SDS011;4015;48.888;9.226;2023-12-22T09:40:40;1.42;;;0.80;;
7939;SDS011;4015;48.888;9.226;2023-12-22T09:43:08;2.00;;;0.80;;
7939;SDS011;4015;48.888;9.226;2023-12-22T09:45:34;1.55;;;0.77;;
7939;SDS011;4015;48.888;9.226;2023-12-22T09:48:00;1.05;;;0.70;;
7939;SDS011;4015;48.888;9.226;2023-12-22T09:50:30;1.40;;;0.70;;
7939;SDS011;4015;48.888;9.226;2023-12-22T09:52:56;1.10;;;0.70;;
7939;SDS011;4015;48.888;9.226;2023-12-22T09:55:21;1.10;;;0.70;;
7939;SDS011;4015;48.888;9.226;2023-12-22T09:57:47;1.25;;;0.80;;
7939;SDS011;4015;48.888;9.226;2023-12-22T10:00:14;1.35;;;0.80;;
7939;SDS011;4015;48.888;9.226;2023-12-22T10:02:41;1.35;;;0.80;;
7939;SDS011;4015;48.888;9.226;2023-12-22T10:05:08;1.15;;;0.70;;
7939;SDS011;4015;48.888;9.226;2023-12-22T10:07:35;1.10;;;0.60;;
7939;SDS011;4015;48.888;9.226;2023-12-22T10:10:00;1.13;;;0.73;;
7939;SDS011;4015;48.888;9.226;2023-12-22T10:12:27;0.65;;;0.65;;
7939;SDS011;4015;48.888;9.226;2023-12-22T10:14:55;1.38;;;0.70;;
7939;SDS011;4015;48.888;9.226;2023-12-22T10:17:21;2.10;;;0.90;;
7939;SDS011;4015;48.888;9.226;2023-12-22T10:19:47;1.05;;;0.80;;
7939;SDS011;4015;48.888;9.226;2023-12-22T10:22:13;1.20;;;0.85;;
7939;SDS011;4015;48.888;9.226;2023-12-22T10:24:40;1.50;;;0.70;;
7939;SDS011;4015;48.888;9.226;2023-12-22T10:27:12;0.90;;;0.70;;
7939;SDS011;4015;48.888;9.226;2023-12-22T10:29:40;1.23;;;1.13;;
7939;SDS011;4015;48.888;9.226;2023-12-22T10:32:06;1.92;;;0.98;;
7939;SDS011;4015;48.888;9.226;2023-12-22T10:34:32;1.25;;;0.73;;
7939;SDS011;4015;48.888;9.226;2023-12-22T10:37:00;1.92;;;0.85;;
7939;SDS011;4015;48.888;9.226;2023-12-22T10:39:29;1.23;;;0.70;;
7939;SDS011;4015;48.888;9.226;2023-12-22T10:41:56;2.38;;;0.88;;
7939;SDS011;4015;48.888;9.226;2023-12-22T10:44:25;1.52;;;0.80;;
7939;SDS011;4015;48.888;9.226;2023-12-22T10:46:51;1.20;;;0.80;;
7939;SDS011;4015;48.888;9.226;2023-12-22T10:49:19;1.60;;;0.73;;
7939;SDS011;4015;48.888;9.226;2023-12-22T10:51:44;1.20;;;0.75;;
7939;SDS011;4015;48.888;9.226;2023-12-22T10:54:09;2.15;;;0.90;;
7939;SDS011;4015;48.888;9.226;2023-12-22T10:56:35;1.08;;;0.90;;
7939;SDS011;4015;48.888;9.226;2023-12-22T10:59:01;0.85;;;0.75;;
7939;SDS011;4015;48.888;9.226;2023-12-22T11:01:31;0.95;;;0.70;;
7939;SDS011;4015;48.888;9.226;2023-12-22T11:04:01;1.27;;;0.80;;
7939;SDS011;4015;48.888;9.226;2023-12-22T11:06:27;1.00;;;0.80;;
7939;SDS011;4015;48.888;9.226;2023-12-22T11:08:56;1.55;;;0.90;;
7939;SDS011;4015;48.888;9.226;2023-12-22T11:11:32;1.05;;;0.70;;
7939;SDS011;4015;48.888;9.226;2023-12-22T11:13:59;1.58;;;0.85;;
7939;SDS011;4015;48.888;9.226;2023-12-22T11:16:27;1.02;;;0.70;;
7939;SDS011;4015;48.888;9.226;2023-12-22T11:18:53;2.25;;;0.82;;
7939;SDS011;4015;48.888;9.226;2023-12-22T11:21:22;1.50;;;0.90;;
7939;SDS011;4015;48.888;9.226;2023-12-22T11:23:49;0.75;;;0.65;;
7939;SDS011;4015;48.888;9.226;2023-12-22T11:26:16;1.52;;;0.80;;
7939;SDS011;4015;48.888;9.226;2023-12-22T11:28:46;2.70;;;1.23;;
7939;SDS011;4015;48.888;9.226;2023-12-22T11:31:13;2.47;;;1.00;;
7939;SDS011;4015;48.888;9.226;2023-12-22T11:33:48;1.20;;;0.90;;
7939;SDS011;4015;48.888;9.226;2023-12-22T11:36:15;1.67;;;0.63;;
7939;SDS011;4015;48.888;9.226;2023-12-22T11:38:42;2.03;;;0.98;;
7939;SDS011;4015;48.888;9.226;2023-12-22T11:41:09;1.45;;;0.90;;
7939;SDS011;4015;48.888;9.226;2023-12-22T11:43:37;1.20;;;0.70;;
7939;SDS011;4015;48.888;9.226;2023-12-22T11:46:05;1.25;;;0.90;;
7939;SDS011;4015;48.888;9.226;2023-12-22T11:48:30;1.60;;;0.90;;
7939;SDS011;4015;48.888;9.226;2023-12-22T11:50:55;0.93;;;0.70;;
7939;SDS011;4015;48.888;9.226;2023-12-22T11:53:25;0.98;;;0.82;;
7939;SDS011;4015;48.888;9.226;2023-12-22T11:58:36;1.30;;;0.90;;
7939;SDS011;4015;48.888;9.226;2023-12-22T12:01:15;1.67;;;0.95;;
7939;SDS011;4015;48.888;9.226;2023-12-22T12:03:53;1.95;;;1.17;;
7939;SDS011;4015;48.888;9.226;2023-12-22T12:08:52;1.15;;;0.98;;
7939;SDS011;4015;48.888;9.226;2023-12-22T12:14:16;1.65;;;0.95;;
7939;SDS011;4015;48.888;9.226;2023-12-22T12:16:47;1.88;;;0.93;;
7939;SDS011;4015;48.888;9.226;2023-12-22T12:19:13;1.63;;;0.90;;
7939;SDS011;4015;48.888;9.226;2023-12-22T12:21:39;1.00;;;0.90;;
7939;SDS011;4015;48.888;9.226;2023-12-22T12:24:05;2.13;;;0.90;;
7939;SDS011;4015;48.888;9.226;2023-12-22T12:26:31;1.35;;;0.90;;
7939;SDS011;4015;48.888;9.226;2023-12-22T12:28:58;1.23;;;0.70;;
7939;SDS011;4015;48.888;9.226;2023-12-22T12:31:35;1.42;;;1.00;;
7939;SDS011;4015;48.888;9.226;2023-12-22T12:34:03;2.15;;;0.88;;
7939;SDS011;4015;48.888;9.226;2023-12-22T12:36:29;0.82;;;0.70;;
7939;SDS011;4015;48.888;9.226;2023-12-22T12:38:55;1.10;;;0.88;;
7939;SDS011;4015;48.888;9.226;2023-12-22T12:41:30;1.08;;;0.70;;
7939;SDS011;4015;48.888;9.226;2023-12-22T12:43:59;2.10;;;1.00;;
7939;SDS011;4015;48.888;9.226;2023-12-22T12:46:37;1.25;;;0.90;;
7939;SDS011;4015;48.888;9.226;2023-12-22T12:51:42;1.67;;;0.90;;
7939;SDS011;4015;48.888;9.226;2023-12-22T12:54:08;1.52;;;0.80;;
7939;SDS011;4015;48.888;9.226;2023-12-22T12:56:45;1.08;;;0.77;;
7939;SDS011;4015;48.888;9.226;2023-12-22T12:59:12;1.65;;;1.00;;
7939;SDS011;4015;48.888;9.226;2023-12-22T13:01:39;0.98;;;0.88;;
7939;SDS011;4015;48.888;9.226;2023-12-22T13:04:05;1.73;;;0.90;;
7939;SDS011;4015;48.888;9.226;2023-12-22T13:06:31;1.27;;;1.00;;
7939;SDS011;4015;48.888;9.226;2023-12-22T13:08:57;1.10;;;0.80;;
7939;SDS011;4015;48.888;9.226;2023-12-22T13:11:22;1.25;;;0.88;;
7939;SDS011;4015;48.888;9.226;2023-12-22T13:13:49;1.80;;;1.00;;
7939;SDS011;4015;48.888;9.226;2023-12-22T13:16:21;1.73;;;0.90;;
7939;SDS011;4015;48.888;9.226;2023-12-22T13:18:51;0.90;;;0.80;;
7939;SDS011;4015;48.888;9.226;2023-12-22T13:21:16;1.13;;;0.80;;
7939;SDS011;4015;48.888;9.226;2023-12-22T13:23:42;2.40;;;1.00;;
7939;SDS011;4015;48.888;9.226;2023-12-22T13:26:17;0.73;;;0.70;;
7939;SDS011;4015;48.888;9.226;2023-12-22T13:28:45;1.15;;;0.73;;
7939;SDS011;4015;48.888;9.226;2023-12-22T13:31:14;1.00;;;0.90;;
7939;SDS011;4015;48.888;9.226;2023-12-22T13:33:40;1.25;;;0.82;;
7939;SDS011;4015;48.888;9.226;2023-12-22T13:36:06;1.52;;;1.00;;
7939;SDS011;4015;48.888;9.226;2023-12-22T13:38:32;0.73;;;0.68;;
7939;SDS011;4015;48.888;9.226;2023-12-22T13:40:58;1.55;;;0.85;;
7939;SDS011;4015;48.888;9.226;2023-12-22T13:43:29;0.73;;;0.70;;
7939;SDS011;4015;48.888;9.226;2023-12-22T13:45:55;1.42;;;0.90;;
7939;SDS011;4015;48.888;9.226;2023-12-22T13:48:21;2.00;;;1.00;;
7939;SDS011;4015;48.888;9.226;2023-12-22T13:50:59;1.67;;;1.00;;
7939;SDS011;4015;48.888;9.226;2023-12-22T13:53:25;1.38;;;0.73;;
7939;SDS011;4015;48.888;9.226;2023-12-22T13:56:00;1.13;;;0.70;;
7939;SDS011;4015;48.888;9.226;2023-12-22T13:58:26;0.75;;;0.75;;
7939;SDS011;4015;48.888;9.226;2023-12-22T14:00:52;0.75;;;0.65;;
7939;SDS011;4015;48.888;9.226;2023-12-22T14:03:18;1.38;;;0.88;;
7939;SDS011;4015;48.888;9.226;2023-12-22T14:05:49;1.35;;;1.20;;
7939;SDS011;4015;48.888;9.226;2023-12-22T14:08:15;1.35;;;0.95;;
7939;SDS011;4015;48.888;9.226;2023-12-22T14:10:47;1.25;;;0.80;;
7939;SDS011;4015;48.888;9.226;2023-12-22T14:13:16;1.30;;;1.05;;
7939;SDS011;4015;48.888;9.226;2023-12-22T14:15:42;0.70;;;0.60;;
7939;SDS011;4015;48.888;9.226;2023-12-22T14:18:10;1.80;;;1.17;;
7939;SDS011;4015;48.888;9.226;2023-12-22T14:20:37;1.73;;;1.10;;
7939;SDS011;4015;48.888;9.226;2023-12-22T14:23:02;1.13;;;0.98;;
7939;SDS011;4015;48.888;9.226;2023-12-22T14:25:28;2.22;;;1.10;;
7939;SDS011;4015;48.888;9.226;2023-12-22T14:27:55;1.60;;;0.77;;
7939;SDS011;4015;48.888;9.226;2023-12-22T14:30:25;0.98;;;0.80;;
7939;SDS011;4015;48.888;9.226;2023-12-22T14:32:50;1.55;;;0.90;;
7939;SDS011;4015;48.888;9.226;2023-12-22T14:35:16;1.33;;;0.90;;
7939;SDS011;4015;48.888;9.226;2023-12-22T14:37:41;1.48;;;0.60;;
7939;SDS011;4015;48.888;9.226;2023-12-22T14:40:08;1.42;;;0.73;;
7939;SDS011;4015;48.888;9.226;2023-12-22T14:42:33;0.60;;;0.60;;
7939;SDS011;4015;48.888;9.226;2023-12-22T14:44:59;1.30;;;0.90;;
7939;SDS011;4015;48.888;9.226;2023-12-22T14:47:26;1.45;;;0.80;;
7939;SDS011;4015;48.888;9.226;2023-12-22T14:49:52;0.90;;;0.70;;
7939;SDS011;4015;48.888;9.226;2023-12-22T14:52:17;1.08;;;0.82;;
7939;SDS011;4015;48.888;9.226;2023-12-22T14:54:42;1.58;;;0.82;;
7939;SDS011;4015;48.888;9.226;2023-12-22T14:57:07;1.05;;;0.70;;
7939;SDS011;4015;48.888;9.226;2023-12-22T14:59:33;1.42;;;0.90;;
7939;SDS011;4015;48.888;9.226;2023-12-22T15:01:58;1.58;;;0.90;;
7939;SDS011;4015;48.888;9.226;2023-12-22T15:04:23;2.05;;;1.10;;
7939;SDS011;4015;48.888;9.226;2023-12-22T15:06:49;0.65;;;0.60;;
7939;SDS011;4015;48.888;9.226;2023-12-22T15:09:15;0.90;;;0.60;;
7939;SDS011;4015;48.888;9.226;2023-12-22T15:11:44;1.02;;;0.85;;
7939;SDS011;4015;48.888;9.226;2023-12-22T15:14:10;1.00;;;0.80;;
7939;SDS011;4015;48.888;9.226;2023-12-22T15:16:40;0.93;;;0.90;;
7939;SDS011;4015;48.888;9.226;2023-12-22T15:19:06;1.30;;;0.70;;
7939;SDS011;4015;48.888;9.226;2023-12-22T15:21:31;1.95;;;0.88;;
7939;SDS011;4015;48.888;9.226;2023-12-22T15:23:56;1.00;;;0.90;;
7939;SDS011;4015;48.888;9.226;2023-12-22T15:26:25;1.20;;;0.73;;